This is the latest recevied weather packets stored in our database for station/object KB3HLL. If no packets are shown the sender has not sent any weather packets the latest 1 day(s).
| Time | Temp. | Humidity | Pressure | Rain* | Wind** | Luminosity | Snow |
|---|---|---|---|---|---|---|---|
| 1778031078 | 18.89° C | 69% | 1011.2 hPa | 0 mm | - | 0 W/m² | - |
| 1778030780 | 18.89° C | 68% | 1011.2 hPa | 0 mm | - | 0 W/m² | - |
| 1778030478 | 18.89° C | 68% | 1011.2 hPa | 0 mm | - | 0 W/m² | - |
| 1778030178 | 18.89° C | 68% | 1011.1 hPa | 0 mm | - | 0 W/m² | - |
| 1778029278 | 18.89° C | 68% | 1011 hPa | 0 mm | - | 0 W/m² | - |
| 1778028977 | 18.89° C | 68% | 1011 hPa | 0 mm | - | 0 W/m² | - |
| 1778028680 | 18.89° C | 68% | 1011 hPa | 0 mm | - | 0 W/m² | - |
| 1778027478 | 18.89° C | 68% | 1010.8 hPa | 0 mm | - | 0 W/m² | - |
| 1778026877 | 18.89° C | 68% | 1010.7 hPa | 0 mm | - | 1 W/m² | - |
| 1778026278 | 18.89° C | 68% | 1010.6 hPa | 0 mm | - | 1 W/m² | - |
| 1778025380 | 19.44° C | 67% | 1010.5 hPa | 0 mm | - | 4 W/m² | - |
| 1778025078 | 19.44° C | 67% | 1010.4 hPa | 0 mm | - | 5 W/m² | - |
| 1778024178 | 19.44° C | 67% | 1010.3 hPa | 0 mm | - | 13 W/m² | - |
| 1778023878 | 19.44° C | 67% | 1010.3 hPa | 0 mm | - | 18 W/m² | - |
| 1778023278 | 19.44° C | 66% | 1010.2 hPa | 0 mm | - | 29 W/m² | - |
| 1778022678 | 19.44° C | 65% | 1010.2 hPa | 0 mm | - | 58 W/m² | - |
| 1778021178 | 20° C | 64% | 1010.3 hPa | 0 mm | - | 22 W/m² | - |
| 1778020878 | 20° C | 63% | 1010.4 hPa | 0 mm | - | 41 W/m² | - |
| 1778020578 | 20° C | 63% | 1010.4 hPa | 0 mm | - | 46 W/m² | - |
| 1778019978 | 19.44° C | 64% | 1010.4 hPa | 0 mm | - | 85 W/m² | - |
| 1778019678 | 19.44° C | 63% | 1010.5 hPa | 0 mm | - | 95 W/m² | - |
| 1778018778 | 19.44° C | 65% | 1010.5 hPa | 0 mm | - | 18 W/m² | - |
| 1778017580 | 21.11° C | 60% | 1010.4 hPa | 0 mm | - | 91 W/m² | - |
| 1778016679 | 21.67° C | 56% | 1010.2 hPa | 0 mm | - | 113 W/m² | - |
| 1778012780 | 21.67° C | 54% | 1010.1 hPa | 0 mm | - | 127 W/m² | - |
* Rain latest hour (hover to see other rain measurements)
** Current wind speed in m/s (hover to see current wind gust speed)